Terminal Aerodrome Forecast
Issued by NWS

Home | Current Version | Previous Version | Text Only | Print | Product List | Glossary Off
Versions: 1 2 3 4 5 6 7 8 9 10 11 12 13 14

866
FTUS43 KIWX 261732
TAFSBN
TAF
KSBN 261732Z 2618/2718 22007KT P6SM SCT250
     FM262200 19006KT P6SM BKN200
     FM270600 19005KT P6SM VCTS BKN090CB
     FM271200 VRB03KT P6SM OVC070=

USA.gov is the U.S. government's official web portal to all federal, state and local government web resources and services.